createdAt,value
2022-11-28T00:01:35.079Z,6.77
2022-11-28T00:04:04.652Z,6.37
2022-11-28T00:06:31.525Z,5.77
2022-11-28T00:08:59.129Z,8.00
2022-11-28T00:11:25.730Z,7.73
2022-11-28T00:13:52.275Z,6.77
2022-11-28T00:16:20.777Z,6.60
2022-11-28T00:18:47.846Z,7.00
2022-11-28T00:21:16.989Z,6.87
2022-11-28T00:23:45.057Z,7.77
2022-11-28T00:26:13.432Z,7.27
2022-11-28T00:28:40.315Z,7.37
2022-11-28T00:31:11.470Z,7.00
2022-11-28T00:33:37.982Z,6.33
2022-11-28T00:36:05.607Z,6.73
2022-11-28T00:38:33.659Z,6.70
2022-11-28T00:41:01.007Z,6.10
2022-11-28T00:43:27.987Z,7.60
2022-11-28T00:45:54.959Z,6.97
2022-11-28T00:48:21.608Z,9.87
2022-11-28T00:50:48.192Z,7.67
2022-11-28T00:53:15.000Z,7.63
2022-11-28T00:55:42.970Z,7.37
2022-11-28T00:58:10.022Z,8.17
2022-11-28T01:00:36.892Z,8.53
2022-11-28T01:03:03.751Z,9.13
2022-11-28T01:05:30.282Z,8.27
2022-11-28T01:07:56.819Z,8.87
2022-11-28T01:10:23.528Z,7.17
2022-11-28T01:12:51.507Z,7.57
2022-11-28T01:15:18.086Z,7.67
2022-11-28T01:17:44.603Z,6.70
2022-11-28T01:20:12.271Z,7.37
2022-11-28T01:22:38.806Z,7.53
2022-11-28T01:25:05.993Z,7.57
2022-11-28T01:27:32.551Z,7.40
2022-11-28T01:30:00.481Z,8.87
2022-11-28T01:32:27.036Z,7.13
2022-11-28T01:34:53.574Z,7.47
2022-11-28T01:37:20.096Z,6.70
2022-11-28T01:39:46.649Z,5.77
2022-11-28T01:42:17.023Z,5.77
2022-11-28T01:45:13.429Z,6.50
2022-11-28T01:47:40.842Z,6.73
2022-11-28T01:50:08.555Z,6.43
2022-11-28T01:52:37.251Z,6.77
2022-11-28T01:55:05.442Z,6.60
2022-11-28T01:57:32.011Z,6.47
2022-11-28T02:00:02.602Z,6.87
2022-11-28T02:02:36.324Z,6.40
2022-11-28T02:05:03.425Z,6.90
2022-11-28T02:07:30.079Z,6.63
2022-11-28T02:09:56.837Z,8.10
2022-11-28T02:12:45.382Z,7.60
2022-11-28T02:15:27.496Z,6.67
2022-11-28T02:18:08.402Z,8.40
2022-11-28T02:21:13.845Z,6.20
2022-11-28T02:24:01.347Z,7.03
2022-11-28T02:26:56.521Z,6.73
2022-11-28T02:29:55.127Z,7.73
2022-11-28T02:32:41.096Z,7.23
2022-11-28T02:35:15.762Z,7.60
2022-11-28T02:37:47.835Z,8.10
2022-11-28T02:40:22.027Z,6.90
2022-11-28T02:42:57.598Z,7.50
2022-11-28T02:45:31.079Z,8.93
2022-11-28T02:48:03.157Z,7.30
2022-11-28T02:50:36.888Z,8.13
2022-11-28T02:53:06.451Z,7.37
2022-11-28T02:55:33.363Z,7.40
2022-11-28T02:58:00.641Z,8.63
2022-11-28T03:00:31.952Z,9.17
2022-11-28T03:03:25.411Z,7.40
2022-11-28T03:05:58.774Z,7.60
2022-11-28T03:08:37.482Z,6.90
2022-11-28T03:11:10.240Z,6.93
2022-11-28T03:13:41.466Z,6.87
2022-11-28T03:16:17.650Z,7.10
2022-11-28T03:18:55.541Z,8.53
2022-11-28T03:21:27.988Z,7.80
2022-11-28T03:23:59.475Z,8.20
2022-11-28T03:26:33.353Z,7.80
2022-11-28T03:29:07.288Z,8.03
2022-11-28T03:31:38.633Z,8.47
2022-11-28T03:34:10.928Z,8.70
2022-11-28T03:36:43.791Z,7.97
2022-11-28T03:39:14.165Z,10.73
2022-11-28T03:41:44.771Z,8.53
2022-11-28T03:44:16.705Z,7.70
2022-11-28T03:46:48.391Z,8.97
2022-11-28T03:49:21.910Z,9.97
2022-11-28T03:51:53.176Z,8.27
2022-11-28T03:54:24.672Z,7.30
2022-11-28T03:56:59.183Z,7.17
2022-11-28T03:59:30.861Z,8.80
2022-11-28T04:02:04.780Z,8.07
2022-11-28T04:04:39.905Z,8.40
2022-11-28T04:07:18.128Z,8.40
2022-11-28T04:09:49.281Z,8.13
2022-11-28T04:12:21.472Z,8.00
2022-11-28T04:14:53.611Z,8.53
2022-11-28T04:17:29.510Z,8.20
2022-11-28T04:20:02.819Z,8.60
2022-11-28T04:22:32.218Z,8.90
2022-11-28T04:25:01.666Z,8.30
2022-11-28T04:27:33.007Z,8.73
2022-11-28T04:30:01.958Z,8.53
2022-11-28T04:32:31.105Z,7.93
2022-11-28T04:35:03.738Z,8.73
2022-11-28T04:37:32.185Z,8.83
2022-11-28T04:40:00.720Z,8.40
2022-11-28T04:42:32.274Z,11.40
2022-11-28T04:45:08.061Z,9.90
2022-11-28T04:47:34.864Z,10.17
2022-11-28T04:50:03.275Z,10.63
2022-11-28T04:52:37.616Z,12.10
2022-11-28T04:55:11.937Z,10.10
2022-11-28T04:57:41.377Z,10.10
2022-11-28T05:00:12.455Z,10.23
2022-11-28T05:02:41.510Z,11.30
2022-11-28T05:05:12.895Z,12.87
2022-11-28T05:07:39.561Z,13.10
2022-11-28T05:10:07.744Z,9.00
2022-11-28T05:12:34.306Z,8.67
2022-11-28T05:15:00.876Z,10.90
2022-11-28T05:17:27.584Z,8.70
2022-11-28T05:19:54.128Z,8.00
2022-11-28T05:22:22.300Z,8.73
2022-11-28T05:24:48.900Z,10.37
2022-11-28T05:27:15.599Z,8.37
2022-11-28T05:29:42.188Z,8.80
2022-11-28T05:32:08.824Z,9.07
2022-11-28T05:34:35.573Z,9.17
2022-11-28T05:37:02.162Z,8.60
2022-11-28T05:39:30.192Z,9.60
2022-11-28T05:41:57.261Z,10.07
2022-11-28T05:44:26.816Z,9.07
2022-11-28T05:46:53.834Z,9.33
2022-11-28T05:49:20.395Z,9.47
2022-11-28T05:51:47.006Z,8.43
2022-11-28T05:54:13.595Z,10.50
2022-11-28T05:56:42.631Z,8.90
2022-11-28T05:59:09.285Z,10.30
2022-11-28T06:01:35.878Z,9.23
2022-11-28T06:04:02.482Z,9.83
2022-11-28T06:06:31.139Z,9.40
2022-11-28T06:08:57.913Z,9.27
2022-11-28T06:11:26.596Z,8.83
2022-11-28T06:13:54.748Z,8.03
2022-11-28T06:16:23.775Z,9.43
2022-11-28T06:18:52.998Z,10.97
2022-11-28T06:21:19.738Z,9.63
2022-11-28T06:23:46.355Z,9.87
2022-11-28T06:26:14.639Z,10.00
2022-11-28T06:28:41.258Z,8.83
2022-11-28T06:31:12.105Z,9.87
2022-11-28T06:33:38.748Z,10.23
2022-11-28T06:36:06.580Z,10.43
2022-11-28T06:38:33.274Z,8.80
2022-11-28T06:41:01.889Z,8.93
2022-11-28T06:43:28.490Z,11.03
2022-11-28T06:45:55.112Z,9.50
2022-11-28T06:48:23.300Z,9.20
2022-11-28T06:50:50.791Z,9.27
2022-11-28T06:53:17.432Z,9.03
2022-11-28T06:55:44.221Z,8.60
2022-11-28T06:58:10.847Z,10.03
2022-11-28T07:00:38.501Z,7.93
2022-11-28T07:03:05.054Z,8.93
2022-11-28T07:05:33.057Z,8.83
2022-11-28T07:08:00.386Z,8.10
2022-11-28T07:10:28.002Z,7.93
2022-11-28T07:12:55.495Z,8.83
2022-11-28T07:15:22.091Z,8.17
2022-11-28T07:17:48.718Z,7.87
2022-11-28T07:20:15.425Z,7.63
2022-11-28T07:22:43.580Z,9.13
2022-11-28T07:25:10.298Z,9.27
2022-11-28T07:27:37.008Z,9.83
2022-11-28T07:30:04.411Z,8.37
2022-11-28T07:32:30.983Z,8.77
2022-11-28T07:34:57.523Z,8.10
2022-11-28T07:37:24.058Z,7.37
2022-11-28T07:39:51.950Z,8.50
2022-11-28T07:42:18.503Z,8.23
2022-11-28T07:44:45.701Z,8.67
2022-11-28T07:47:12.256Z,8.20
2022-11-28T07:49:38.780Z,8.97
2022-11-28T07:52:05.338Z,9.17
2022-11-28T07:54:31.823Z,9.53
2022-11-28T07:57:15.133Z,7.63
2022-11-28T07:59:41.906Z,8.43
2022-11-28T08:02:09.892Z,9.77
2022-11-28T08:04:36.911Z,8.97
2022-11-28T08:07:03.665Z,8.97
2022-11-28T08:09:31.498Z,8.07
2022-11-28T08:11:59.461Z,9.23
2022-11-28T08:14:26.047Z,9.07
2022-11-28T08:16:52.641Z,8.80
2022-11-28T08:19:22.958Z,8.17
2022-11-28T08:21:51.207Z,9.63
2022-11-28T08:24:17.766Z,11.00
2022-11-28T08:26:44.266Z,8.77
2022-11-28T08:29:12.229Z,8.83
2022-11-28T08:31:39.521Z,9.63
2022-11-28T08:34:08.708Z,8.30
2022-11-28T08:36:35.322Z,10.13
2022-11-28T08:39:23.014Z,8.80
2022-11-28T08:41:50.745Z,10.63
2022-11-28T08:44:18.713Z,9.70
2022-11-28T08:46:45.297Z,8.83
2022-11-28T08:49:11.842Z,10.13
2022-11-28T08:51:38.362Z,8.33
2022-11-28T08:54:05.116Z,9.47
2022-11-28T08:56:31.727Z,10.23
2022-11-28T08:58:58.335Z,10.00
2022-11-28T09:01:26.817Z,8.73
2022-11-28T09:03:54.506Z,9.77
2022-11-28T09:06:22.253Z,9.27
2022-11-28T09:08:49.464Z,8.93
2022-11-28T09:11:17.716Z,10.77
2022-11-28T09:13:44.670Z,8.67
2022-11-28T09:16:11.719Z,8.80
2022-11-28T09:18:39.860Z,9.43
2022-11-28T09:21:09.528Z,8.87
2022-11-28T09:23:36.494Z,8.27
2022-11-28T09:26:08.307Z,9.67
2022-11-28T09:28:34.857Z,10.20
2022-11-28T09:31:02.193Z,11.17
2022-11-28T09:33:28.798Z,10.00
2022-11-28T09:35:56.779Z,8.37
2022-11-28T09:38:24.031Z,8.13
2022-11-28T09:40:51.787Z,7.43
2022-11-28T09:43:26.676Z,10.17
2022-11-28T09:45:54.600Z,11.73
2022-11-28T09:48:29.593Z,9.50
2022-11-28T09:51:00.967Z,10.03
2022-11-28T09:53:34.365Z,9.17
2022-11-28T09:56:08.783Z,9.07
2022-11-28T09:58:41.439Z,10.13
2022-11-28T10:01:16.999Z,9.20
2022-11-28T10:03:53.481Z,10.43
2022-11-28T10:06:25.324Z,10.43
2022-11-28T10:09:10.731Z,9.33
2022-11-28T10:11:49.600Z,9.10
2022-11-28T10:14:33.051Z,11.50
2022-11-28T10:17:09.686Z,10.00
2022-11-28T10:19:54.234Z,9.47
2022-11-28T10:22:31.090Z,8.43
2022-11-28T10:25:03.248Z,9.47
2022-11-28T10:27:34.472Z,10.43
2022-11-28T10:30:04.820Z,11.00
2022-11-28T10:32:34.819Z,11.23
2022-11-28T10:35:04.038Z,11.07
2022-11-28T10:37:36.093Z,11.20
2022-11-28T10:40:15.918Z,11.27
2022-11-28T10:42:49.765Z,11.30
2022-11-28T10:45:24.660Z,13.23
2022-11-28T10:48:37.950Z,9.93
2022-11-28T10:51:09.791Z,10.17
2022-11-28T10:53:46.753Z,12.00
2022-11-28T10:56:24.911Z,11.40
2022-11-28T10:58:58.150Z,11.03
2022-11-28T11:01:28.929Z,10.03
2022-11-28T11:03:55.522Z,12.23
2022-11-28T11:06:25.479Z,9.23
2022-11-28T11:08:53.471Z,11.73
2022-11-28T11:11:25.570Z,10.30
2022-11-28T11:14:01.620Z,9.93
2022-11-28T11:16:50.105Z,10.87
2022-11-28T11:19:24.663Z,10.83
2022-11-28T11:21:59.190Z,10.97
2022-11-28T11:24:27.501Z,10.43
2022-11-28T11:26:54.373Z,10.47
2022-11-28T11:29:22.637Z,8.90
2022-11-28T11:31:51.631Z,11.33
2022-11-28T11:34:21.233Z,9.93
2022-11-28T11:36:48.230Z,8.70
2022-11-28T11:39:20.179Z,9.03
2022-11-28T11:41:49.248Z,10.57
2022-11-28T11:44:31.148Z,10.80
2022-11-28T11:47:00.036Z,11.23
2022-11-28T11:49:31.965Z,9.83
2022-11-28T11:52:00.572Z,10.53
2022-11-28T11:54:27.171Z,10.30
2022-11-28T11:57:24.854Z,8.50
2022-11-28T11:59:47.248Z,8.23
2022-11-28T12:02:29.858Z,10.67
2022-11-28T12:05:02.037Z,9.27
2022-11-28T12:07:36.089Z,10.73
2022-11-28T12:10:04.860Z,10.37
2022-11-28T12:12:36.502Z,9.13
2022-11-28T12:15:03.678Z,9.83
2022-11-28T12:17:54.545Z,9.00
2022-11-28T12:20:39.638Z,8.93
2022-11-28T12:26:14.807Z,7.30
2022-11-28T12:28:54.497Z,8.67
2022-11-28T12:31:29.953Z,7.50
2022-11-28T12:34:10.767Z,9.57
2022-11-28T12:36:44.870Z,7.70
2022-11-28T12:39:32.629Z,10.67
2022-11-28T12:42:16.037Z,8.20
2022-11-28T12:44:54.367Z,9.40
2022-11-28T12:47:33.433Z,8.93
2022-11-28T12:50:09.966Z,7.60
2022-11-28T12:52:44.137Z,8.07
2022-11-28T12:55:25.404Z,8.97
2022-11-28T12:58:00.507Z,7.50
2022-11-28T13:00:31.034Z,6.87
2022-11-28T13:03:10.700Z,8.30
2022-11-28T13:05:59.316Z,7.03
2022-11-28T13:08:47.912Z,6.77
2022-11-28T13:11:29.297Z,6.40
2022-11-28T13:14:01.263Z,6.47
2022-11-28T13:16:40.329Z,7.83
2022-11-28T13:19:11.868Z,6.87
2022-11-28T13:21:44.433Z,6.50
2022-11-28T13:24:28.361Z,8.83
2022-11-28T13:27:03.465Z,10.40
2022-11-28T13:29:36.178Z,10.47
2022-11-28T13:32:10.449Z,9.77
2022-11-28T13:34:38.068Z,13.00
2022-11-28T13:40:06.293Z,16.23
2022-11-28T13:45:32.317Z,11.07
2022-11-28T13:51:31.112Z,10.83
2022-11-28T13:54:41.795Z,10.17
2022-11-28T13:57:19.439Z,6.80
2022-11-28T13:59:50.318Z,6.00
2022-11-28T14:02:22.258Z,6.30
2022-11-28T14:04:50.656Z,6.63
2022-11-28T14:07:24.722Z,7.87
2022-11-28T14:10:04.067Z,7.67
2022-11-28T14:12:38.660Z,5.83
2022-11-28T14:15:20.303Z,7.30
2022-11-28T14:18:01.805Z,5.83
2022-11-28T14:20:36.860Z,6.20
2022-11-28T14:23:18.703Z,5.57
2022-11-28T14:25:48.132Z,5.77
2022-11-28T14:28:23.178Z,5.23
2022-11-28T14:30:51.106Z,7.20
2022-11-28T14:33:23.490Z,8.93
2022-11-28T14:36:31.940Z,8.10
2022-11-28T14:39:11.134Z,6.33
2022-11-28T14:42:36.971Z,6.10
2022-11-28T14:45:08.412Z,6.17
2022-11-28T14:47:35.775Z,7.03
2022-11-28T14:50:55.916Z,7.43
2022-11-28T14:53:43.197Z,9.00
2022-11-28T14:56:15.930Z,6.70
2022-11-28T14:58:46.232Z,6.43
2022-11-28T15:01:19.005Z,5.47
2022-11-28T15:03:56.069Z,5.63
2022-11-28T15:06:28.568Z,5.63
2022-11-28T15:09:04.333Z,7.00
2022-11-28T15:11:46.828Z,6.57
2022-11-28T15:14:21.446Z,9.03
2022-11-28T15:16:51.093Z,7.17
2022-11-28T15:19:23.784Z,6.93
2022-11-28T15:21:51.871Z,9.80
2022-11-28T15:24:28.766Z,9.07
2022-11-28T15:26:58.089Z,21.53
2022-11-28T15:29:27.210Z,16.87
2022-11-28T15:31:56.074Z,13.77
2022-11-28T15:34:27.835Z,11.57
2022-11-28T15:36:56.415Z,12.07
2022-11-28T15:39:29.323Z,10.87
2022-11-28T15:41:57.052Z,10.17
2022-11-28T15:44:23.932Z,10.30
2022-11-28T15:46:50.666Z,12.33
2022-11-28T15:49:25.217Z,13.27
2022-11-28T15:51:53.190Z,15.23
2022-11-28T15:54:35.063Z,11.97
2022-11-28T15:57:01.948Z,10.40
2022-11-28T15:59:29.107Z,8.83
2022-11-28T16:01:59.750Z,9.50
2022-11-28T16:04:27.215Z,8.20
2022-11-28T16:06:56.853Z,9.90
2022-11-28T16:09:27.510Z,9.23
2022-11-28T16:11:55.781Z,8.10
2022-11-28T16:14:26.213Z,8.60
2022-11-28T16:16:53.105Z,8.63
2022-11-28T16:19:24.868Z,10.57
2022-11-28T16:21:53.888Z,9.07
2022-11-28T16:24:25.705Z,8.50
2022-11-28T16:26:59.014Z,9.20
2022-11-28T16:29:42.666Z,9.00
2022-11-28T16:32:18.916Z,8.67
2022-11-28T16:34:47.360Z,7.73
2022-11-28T16:37:17.665Z,10.13
2022-11-28T16:39:44.508Z,15.00
2022-11-28T16:42:16.335Z,15.53
2022-11-28T16:44:43.495Z,12.07
2022-11-28T16:47:25.567Z,11.73
2022-11-28T16:50:16.251Z,10.93
2022-11-28T16:52:52.608Z,10.83
2022-11-28T16:55:40.728Z,9.40
2022-11-28T16:58:17.922Z,10.37
2022-11-28T17:00:48.742Z,8.50
2022-11-28T17:03:44.595Z,7.57
2022-11-28T17:06:26.272Z,9.17
2022-11-28T17:08:52.826Z,9.57
2022-11-28T17:11:22.765Z,8.30
2022-11-28T17:13:51.751Z,9.13
2022-11-28T17:16:20.430Z,9.23
2022-11-28T17:18:47.452Z,8.73
2022-11-28T17:21:15.671Z,9.83
2022-11-28T17:23:42.769Z,11.13
2022-11-28T17:26:10.327Z,9.47
2022-11-28T17:28:37.051Z,8.90
2022-11-28T17:31:05.413Z,9.90
2022-11-28T17:33:31.989Z,9.70
2022-11-28T17:36:00.006Z,10.40
2022-11-28T17:38:26.619Z,10.40
2022-11-28T17:40:53.497Z,9.97
2022-11-28T17:43:21.571Z,9.77
2022-11-28T17:45:48.776Z,9.00
2022-11-28T17:48:17.592Z,9.27
2022-11-28T17:50:46.367Z,7.87
2022-11-28T17:53:14.669Z,8.67
2022-11-28T17:55:42.683Z,12.07
2022-11-28T17:58:15.456Z,9.03
2022-11-28T18:00:42.094Z,10.37
2022-11-28T18:03:08.731Z,11.23
2022-11-28T18:05:38.338Z,10.23
2022-11-28T18:08:06.114Z,11.07
2022-11-28T18:10:32.661Z,10.20
2022-11-28T18:12:59.223Z,11.47
2022-11-28T18:15:25.817Z,10.23
2022-11-28T18:17:52.343Z,10.77
2022-11-28T18:20:19.081Z,10.10
2022-11-28T18:22:47.089Z,9.43
2022-11-28T18:25:13.644Z,10.67
2022-11-28T18:27:40.250Z,10.37
2022-11-28T18:30:07.924Z,9.90
2022-11-28T18:32:34.475Z,9.37
2022-11-28T18:35:01.026Z,10.17
2022-11-28T18:37:27.549Z,9.47
2022-11-28T18:39:55.503Z,9.97
2022-11-28T18:42:22.032Z,9.50
2022-11-28T18:44:48.625Z,11.87
2022-11-28T18:47:15.206Z,10.17
2022-11-28T18:49:42.105Z,11.33
2022-11-28T18:52:08.893Z,10.10
2022-11-28T18:54:35.473Z,9.50
2022-11-28T18:57:03.607Z,10.53
2022-11-28T18:59:30.146Z,9.63
2022-11-28T19:01:56.758Z,14.53
2022-11-28T19:04:23.367Z,25.43
2022-11-28T19:06:50.086Z,22.30
2022-11-28T19:09:18.002Z,20.83
2022-11-28T19:11:46.163Z,22.83
2022-11-28T19:14:16.587Z,54.67
2022-11-28T19:16:43.534Z,66.93
2022-11-28T19:19:10.711Z,74.90
2022-11-28T19:21:37.429Z,34.60
2022-11-28T19:24:04.862Z,18.23
2022-11-28T19:26:32.046Z,15.27
2022-11-28T19:28:58.614Z,10.80
2022-11-28T19:31:29.093Z,8.83
2022-11-28T19:34:00.767Z,9.30
2022-11-28T19:36:28.243Z,9.63
2022-11-28T19:38:54.853Z,8.83
2022-11-28T19:41:22.361Z,9.27
2022-11-28T19:43:49.206Z,9.03
2022-11-28T19:46:16.280Z,10.33
2022-11-28T19:48:44.440Z,10.77
2022-11-28T19:51:12.495Z,10.73
2022-11-28T19:53:41.374Z,10.20
2022-11-28T19:56:11.128Z,10.57
2022-11-28T19:58:37.845Z,10.23
2022-11-28T20:01:04.797Z,10.43
2022-11-28T20:03:32.353Z,11.67
2022-11-28T20:06:00.364Z,10.83
2022-11-28T20:08:26.987Z,11.53
2022-11-28T20:10:53.528Z,11.30
2022-11-28T20:13:20.174Z,10.67
2022-11-28T20:15:46.722Z,10.73
2022-11-28T20:18:13.268Z,10.63
2022-11-28T20:20:39.805Z,12.77
2022-11-28T20:23:07.786Z,11.47
2022-11-28T20:25:34.337Z,11.10
2022-11-28T20:28:01.225Z,12.77
2022-11-28T20:30:27.814Z,11.27
2022-11-28T20:32:54.367Z,9.13
2022-11-28T20:35:20.968Z,10.67
2022-11-28T20:37:47.517Z,10.27
2022-11-28T20:40:15.811Z,10.03
2022-11-28T20:42:45.153Z,12.40
2022-11-28T20:45:11.725Z,13.73
2022-11-28T20:47:38.253Z,12.30
2022-11-28T20:50:07.078Z,9.63
2022-11-28T20:52:33.701Z,11.47
2022-11-28T20:55:00.297Z,13.73
2022-11-28T20:57:28.217Z,10.93
2022-11-28T20:59:54.877Z,12.97
2022-11-28T21:02:21.538Z,13.07
2022-11-28T21:04:48.159Z,12.27
2022-11-28T21:07:14.812Z,10.77
2022-11-28T21:09:41.677Z,10.67
2022-11-28T21:12:08.395Z,9.90
2022-11-28T21:14:36.399Z,10.60
2022-11-28T21:17:03.009Z,11.60
2022-11-28T21:19:29.541Z,10.83
2022-11-28T21:21:56.116Z,11.70
2022-11-28T21:24:22.720Z,12.90
2022-11-28T21:26:53.359Z,10.53
2022-11-28T21:29:20.760Z,9.27
2022-11-28T21:31:48.759Z,13.30
2022-11-28T21:34:15.634Z,12.43
2022-11-28T21:36:42.569Z,12.03
2022-11-28T21:39:12.599Z,11.20
2022-11-28T21:41:39.169Z,10.40
2022-11-28T21:44:05.909Z,8.77
2022-11-28T21:46:32.442Z,10.37
2022-11-28T21:49:00.351Z,10.13
2022-11-28T21:51:26.869Z,9.80
2022-11-28T21:53:53.456Z,9.97
2022-11-28T21:56:20.193Z,10.07
2022-11-28T21:58:46.773Z,9.27
2022-11-28T22:01:13.981Z,10.87
2022-11-28T22:03:41.318Z,24.03
2022-11-28T22:06:14.303Z,69.13
2022-11-28T22:08:40.806Z,100.43
2022-11-28T22:11:08.113Z,39.73
2022-11-28T22:13:35.525Z,24.50
2022-11-28T22:16:02.082Z,15.87
2022-11-28T22:18:29.346Z,12.70
2022-11-28T22:21:01.110Z,11.50
2022-11-28T22:23:29.154Z,69.93
2022-11-28T22:25:55.694Z,77.33
2022-11-28T22:28:22.222Z,76.67
2022-11-28T22:30:48.772Z,63.53
2022-11-28T22:33:15.305Z,63.97
2022-11-28T22:35:41.902Z,41.13
2022-11-28T22:38:08.498Z,22.63
2022-11-28T22:40:36.933Z,16.33
2022-11-28T22:43:03.700Z,13.00
2022-11-28T22:45:30.269Z,12.43
2022-11-28T22:47:57.189Z,13.67
2022-11-28T22:50:23.735Z,18.30
2022-11-28T22:52:50.279Z,19.33
2022-11-28T22:55:16.854Z,13.07
2022-11-28T22:57:44.991Z,14.30
2022-11-28T23:00:12.800Z,14.27
2022-11-28T23:02:39.441Z,11.33
2022-11-28T23:05:06.592Z,13.60
2022-11-28T23:07:33.177Z,12.63
2022-11-28T23:09:59.747Z,11.23
2022-11-28T23:12:26.285Z,12.47
2022-11-28T23:14:54.171Z,10.60
2022-11-28T23:17:20.686Z,9.37
2022-11-28T23:19:47.256Z,9.27
2022-11-28T23:22:13.772Z,9.27
2022-11-28T23:24:40.365Z,10.33
2022-11-28T23:27:07.082Z,9.97
2022-11-28T23:29:34.059Z,10.27
2022-11-28T23:32:02.014Z,8.40
2022-11-28T23:34:28.677Z,9.20
2022-11-28T23:36:55.179Z,8.97
2022-11-28T23:39:22.556Z,11.10
2022-11-28T23:41:49.782Z,8.90
2022-11-28T23:44:18.685Z,7.87
2022-11-28T23:46:46.397Z,9.43
2022-11-28T23:49:14.419Z,8.17
2022-11-28T23:51:41.193Z,8.37
2022-11-28T23:54:08.629Z,9.23
2022-11-28T23:56:36.619Z,8.50
2022-11-28T23:59:05.851Z,7.87
